sensor_id;sensor_type;location;lat;lon;timestamp;P1;durP1;ratioP1;P2;durP2;ratioP2
11646;SDS011;5880;52.342;9.662;2022-07-05T00:01:08;1.73;;;1.08;;
11646;SDS011;5880;52.342;9.662;2022-07-05T00:03:34;4.07;;;1.23;;
11646;SDS011;5880;52.342;9.662;2022-07-05T00:05:59;2.13;;;1.35;;
11646;SDS011;5880;52.342;9.662;2022-07-05T00:08:25;2.90;;;1.40;;
11646;SDS011;5880;52.342;9.662;2022-07-05T00:10:51;1.70;;;1.20;;
11646;SDS011;5880;52.342;9.662;2022-07-05T00:13:17;2.30;;;1.25;;
11646;SDS011;5880;52.342;9.662;2022-07-05T00:15:43;1.42;;;1.10;;
11646;SDS011;5880;52.342;9.662;2022-07-05T00:18:09;2.20;;;1.25;;
11646;SDS011;5880;52.342;9.662;2022-07-05T00:20:35;1.33;;;1.20;;
11646;SDS011;5880;52.342;9.662;2022-07-05T00:23:01;1.10;;;0.93;;
11646;SDS011;5880;52.342;9.662;2022-07-05T00:25:26;1.30;;;1.20;;
11646;SDS011;5880;52.342;9.662;2022-07-05T00:27:52;1.40;;;1.30;;
11646;SDS011;5880;52.342;9.662;2022-07-05T00:30:20;1.40;;;1.20;;
11646;SDS011;5880;52.342;9.662;2022-07-05T00:32:47;2.00;;;1.07;;
11646;SDS011;5880;52.342;9.662;2022-07-05T00:35:13;2.83;;;1.20;;
11646;SDS011;5880;52.342;9.662;2022-07-05T00:37:39;3.47;;;1.27;;
11646;SDS011;5880;52.342;9.662;2022-07-05T00:40:05;2.10;;;1.13;;
11646;SDS011;5880;52.342;9.662;2022-07-05T00:42:32;1.50;;;1.37;;
11646;SDS011;5880;52.342;9.662;2022-07-05T00:44:58;1.50;;;1.10;;
11646;SDS011;5880;52.342;9.662;2022-07-05T00:47:24;2.40;;;1.20;;
11646;SDS011;5880;52.342;9.662;2022-07-05T00:49:50;1.77;;;1.30;;
11646;SDS011;5880;52.342;9.662;2022-07-05T00:52:16;3.03;;;1.40;;
11646;SDS011;5880;52.342;9.662;2022-07-05T00:54:41;2.37;;;1.30;;
11646;SDS011;5880;52.342;9.662;2022-07-05T00:57:07;1.30;;;1.07;;
11646;SDS011;5880;52.342;9.662;2022-07-05T00:59:33;1.20;;;1.10;;
11646;SDS011;5880;52.342;9.662;2022-07-05T01:01:59;1.63;;;1.20;;
11646;SDS011;5880;52.342;9.662;2022-07-05T01:04:25;1.50;;;1.13;;
11646;SDS011;5880;52.342;9.662;2022-07-05T01:06:52;1.43;;;1.23;;
11646;SDS011;5880;52.342;9.662;2022-07-05T01:09:18;1.50;;;1.33;;
11646;SDS011;5880;52.342;9.662;2022-07-05T01:11:46;2.17;;;1.20;;
11646;SDS011;5880;52.342;9.662;2022-07-05T01:14:24;1.50;;;1.13;;
11646;SDS011;5880;52.342;9.662;2022-07-05T01:16:50;1.40;;;1.30;;
11646;SDS011;5880;52.342;9.662;2022-07-05T01:19:18;2.23;;;1.30;;
11646;SDS011;5880;52.342;9.662;2022-07-05T01:21:46;3.80;;;1.40;;
11646;SDS011;5880;52.342;9.662;2022-07-05T01:24:15;1.50;;;1.13;;
11646;SDS011;5880;52.342;9.662;2022-07-05T01:26:44;2.50;;;1.50;;
11646;SDS011;5880;52.342;9.662;2022-07-05T01:29:16;3.00;;;1.20;;
11646;SDS011;5880;52.342;9.662;2022-07-05T01:31:42;1.57;;;1.47;;
11646;SDS011;5880;52.342;9.662;2022-07-05T01:34:08;2.03;;;1.47;;
11646;SDS011;5880;52.342;9.662;2022-07-05T01:36:34;1.40;;;1.30;;
11646;SDS011;5880;52.342;9.662;2022-07-05T01:39:02;1.37;;;1.10;;
11646;SDS011;5880;52.342;9.662;2022-07-05T01:41:32;2.00;;;1.37;;
11646;SDS011;5880;52.342;9.662;2022-07-05T01:43:58;2.27;;;1.30;;
11646;SDS011;5880;52.342;9.662;2022-07-05T01:46:25;1.20;;;1.10;;
11646;SDS011;5880;52.342;9.662;2022-07-05T01:48:58;1.30;;;1.20;;
11646;SDS011;5880;52.342;9.662;2022-07-05T01:51:30;1.50;;;1.20;;
11646;SDS011;5880;52.342;9.662;2022-07-05T01:54:02;2.47;;;1.23;;
11646;SDS011;5880;52.342;9.662;2022-07-05T01:56:28;1.70;;;1.20;;
11646;SDS011;5880;52.342;9.662;2022-07-05T01:58:54;2.37;;;1.10;;
11646;SDS011;5880;52.342;9.662;2022-07-05T02:01:35;2.30;;;1.30;;
11646;SDS011;5880;52.342;9.662;2022-07-05T02:04:04;2.43;;;1.60;;
11646;SDS011;5880;52.342;9.662;2022-07-05T02:06:32;1.90;;;1.30;;
11646;SDS011;5880;52.342;9.662;2022-07-05T02:08:59;1.63;;;1.50;;
11646;SDS011;5880;52.342;9.662;2022-07-05T02:11:26;1.50;;;1.40;;
11646;SDS011;5880;52.342;9.662;2022-07-05T02:13:51;1.57;;;1.30;;
11646;SDS011;5880;52.342;9.662;2022-07-05T02:16:17;1.33;;;1.23;;
11646;SDS011;5880;52.342;9.662;2022-07-05T02:18:47;2.10;;;1.60;;
11646;SDS011;5880;52.342;9.662;2022-07-05T02:21:12;1.60;;;1.50;;
11646;SDS011;5880;52.342;9.662;2022-07-05T02:23:38;2.50;;;1.40;;
11646;SDS011;5880;52.342;9.662;2022-07-05T02:26:04;1.60;;;1.50;;
11646;SDS011;5880;52.342;9.662;2022-07-05T02:28:30;1.43;;;1.33;;
11646;SDS011;5880;52.342;9.662;2022-07-05T02:30:55;1.97;;;1.30;;
11646;SDS011;5880;52.342;9.662;2022-07-05T02:33:21;1.40;;;1.30;;
11646;SDS011;5880;52.342;9.662;2022-07-05T02:35:47;1.63;;;1.50;;
11646;SDS011;5880;52.342;9.662;2022-07-05T02:38:12;1.70;;;1.60;;
11646;SDS011;5880;52.342;9.662;2022-07-05T02:40:38;4.30;;;1.70;;
11646;SDS011;5880;52.342;9.662;2022-07-05T02:43:03;2.43;;;1.50;;
11646;SDS011;5880;52.342;9.662;2022-07-05T02:45:29;2.10;;;1.60;;
11646;SDS011;5880;52.342;9.662;2022-07-05T02:47:55;2.67;;;1.70;;
11646;SDS011;5880;52.342;9.662;2022-07-05T02:50:22;2.90;;;1.57;;
11646;SDS011;5880;52.342;9.662;2022-07-05T02:52:48;2.13;;;1.60;;
11646;SDS011;5880;52.342;9.662;2022-07-05T02:55:14;1.63;;;1.53;;
11646;SDS011;5880;52.342;9.662;2022-07-05T02:57:39;1.60;;;1.43;;
11646;SDS011;5880;52.342;9.662;2022-07-05T03:00:05;1.53;;;1.43;;
11646;SDS011;5880;52.342;9.662;2022-07-05T03:02:32;2.23;;;1.50;;
11646;SDS011;5880;52.342;9.662;2022-07-05T03:04:58;1.57;;;1.37;;
11646;SDS011;5880;52.342;9.662;2022-07-05T03:07:24;2.00;;;1.30;;
11646;SDS011;5880;52.342;9.662;2022-07-05T03:09:49;1.83;;;1.40;;
11646;SDS011;5880;52.342;9.662;2022-07-05T03:12:15;1.50;;;1.40;;
11646;SDS011;5880;52.342;9.662;2022-07-05T03:14:41;1.47;;;1.30;;
11646;SDS011;5880;52.342;9.662;2022-07-05T03:17:06;2.17;;;1.57;;
11646;SDS011;5880;52.342;9.662;2022-07-05T03:19:32;1.50;;;1.30;;
11646;SDS011;5880;52.342;9.662;2022-07-05T03:21:58;1.87;;;1.40;;
11646;SDS011;5880;52.342;9.662;2022-07-05T03:24:24;1.60;;;1.50;;
11646;SDS011;5880;52.342;9.662;2022-07-05T03:26:49;2.50;;;1.60;;
11646;SDS011;5880;52.342;9.662;2022-07-05T03:29:15;1.93;;;1.50;;
11646;SDS011;5880;52.342;9.662;2022-07-05T03:31:40;2.17;;;1.50;;
11646;SDS011;5880;52.342;9.662;2022-07-05T03:34:06;2.37;;;1.53;;
11646;SDS011;5880;52.342;9.662;2022-07-05T03:36:32;2.17;;;1.47;;
11646;SDS011;5880;52.342;9.662;2022-07-05T03:38:58;2.27;;;1.60;;
11646;SDS011;5880;52.342;9.662;2022-07-05T03:41:23;2.13;;;1.50;;
11646;SDS011;5880;52.342;9.662;2022-07-05T03:43:49;1.63;;;1.40;;
11646;SDS011;5880;52.342;9.662;2022-07-05T03:46:14;1.60;;;1.50;;
11646;SDS011;5880;52.342;9.662;2022-07-05T03:48:40;1.47;;;1.37;;
11646;SDS011;5880;52.342;9.662;2022-07-05T03:51:06;2.57;;;1.50;;
11646;SDS011;5880;52.342;9.662;2022-07-05T03:53:31;1.90;;;1.50;;
11646;SDS011;5880;52.342;9.662;2022-07-05T03:55:57;1.63;;;1.50;;
11646;SDS011;5880;52.342;9.662;2022-07-05T03:58:23;1.67;;;1.53;;
11646;SDS011;5880;52.342;9.662;2022-07-05T04:00:48;1.83;;;1.43;;
11646;SDS011;5880;52.342;9.662;2022-07-05T04:03:14;2.03;;;1.40;;
11646;SDS011;5880;52.342;9.662;2022-07-05T04:05:39;1.50;;;1.40;;
11646;SDS011;5880;52.342;9.662;2022-07-05T04:08:06;1.50;;;1.40;;
11646;SDS011;5880;52.342;9.662;2022-07-05T04:10:32;1.53;;;1.40;;
11646;SDS011;5880;52.342;9.662;2022-07-05T04:12:58;3.57;;;1.83;;
11646;SDS011;5880;52.342;9.662;2022-07-05T04:15:23;1.97;;;1.50;;
11646;SDS011;5880;52.342;9.662;2022-07-05T04:17:50;3.60;;;1.53;;
11646;SDS011;5880;52.342;9.662;2022-07-05T04:20:19;1.73;;;1.60;;
11646;SDS011;5880;52.342;9.662;2022-07-05T04:22:47;1.67;;;1.57;;
11646;SDS011;5880;52.342;9.662;2022-07-05T04:25:16;1.93;;;1.70;;
11646;SDS011;5880;52.342;9.662;2022-07-05T04:30:10;1.60;;;1.50;;
11646;SDS011;5880;52.342;9.662;2022-07-05T04:32:36;1.50;;;1.40;;
11646;SDS011;5880;52.342;9.662;2022-07-05T04:35:01;1.67;;;1.57;;
11646;SDS011;5880;52.342;9.662;2022-07-05T04:37:27;1.60;;;1.50;;
11646;SDS011;5880;52.342;9.662;2022-07-05T04:39:53;1.77;;;1.67;;
11646;SDS011;5880;52.342;9.662;2022-07-05T04:42:19;1.73;;;1.63;;
11646;SDS011;5880;52.342;9.662;2022-07-05T04:44:44;2.00;;;1.57;;
11646;SDS011;5880;52.342;9.662;2022-07-05T04:47:10;5.90;;;1.87;;
11646;SDS011;5880;52.342;9.662;2022-07-05T04:49:36;1.63;;;1.33;;
11646;SDS011;5880;52.342;9.662;2022-07-05T04:52:01;2.03;;;1.90;;
11646;SDS011;5880;52.342;9.662;2022-07-05T04:54:27;2.00;;;1.50;;
11646;SDS011;5880;52.342;9.662;2022-07-05T04:56:53;2.10;;;1.70;;
11646;SDS011;5880;52.342;9.662;2022-07-05T04:59:18;2.60;;;1.60;;
11646;SDS011;5880;52.342;9.662;2022-07-05T05:01:44;2.07;;;1.60;;
11646;SDS011;5880;52.342;9.662;2022-07-05T05:04:10;2.25;;;1.70;;
11646;SDS011;5880;52.342;9.662;2022-07-05T05:06:35;2.00;;;1.60;;
11646;SDS011;5880;52.342;9.662;2022-07-05T05:09:01;2.37;;;1.80;;
11646;SDS011;5880;52.342;9.662;2022-07-05T05:11:27;2.03;;;1.83;;
11646;SDS011;5880;52.342;9.662;2022-07-05T05:13:53;1.92;;;1.70;;
11646;SDS011;5880;52.342;9.662;2022-07-05T05:16:19;4.17;;;1.77;;
11646;SDS011;5880;52.342;9.662;2022-07-05T05:18:45;3.67;;;1.75;;
11646;SDS011;5880;52.342;9.662;2022-07-05T05:21:11;1.75;;;1.58;;
11646;SDS011;5880;52.342;9.662;2022-07-05T05:23:36;2.25;;;1.83;;
11646;SDS011;5880;52.342;9.662;2022-07-05T05:26:02;1.90;;;1.70;;
11646;SDS011;5880;52.342;9.662;2022-07-05T05:28:28;3.63;;;1.90;;
11646;SDS011;5880;52.342;9.662;2022-07-05T05:30:54;1.80;;;1.60;;
11646;SDS011;5880;52.342;9.662;2022-07-05T05:33:19;3.53;;;1.65;;
11646;SDS011;5880;52.342;9.662;2022-07-05T05:35:45;3.25;;;1.73;;
11646;SDS011;5880;52.342;9.662;2022-07-05T05:38:10;3.17;;;1.80;;
11646;SDS011;5880;52.342;9.662;2022-07-05T05:40:36;2.95;;;1.58;;
11646;SDS011;5880;52.342;9.662;2022-07-05T05:43:10;2.50;;;1.80;;
11646;SDS011;5880;52.342;9.662;2022-07-05T05:45:37;1.92;;;1.75;;
11646;SDS011;5880;52.342;9.662;2022-07-05T05:48:02;1.95;;;1.60;;
11646;SDS011;5880;52.342;9.662;2022-07-05T05:50:32;2.00;;;1.80;;
11646;SDS011;5880;52.342;9.662;2022-07-05T05:53:00;2.65;;;1.50;;
11646;SDS011;5880;52.342;9.662;2022-07-05T05:55:27;2.42;;;1.80;;
11646;SDS011;5880;52.342;9.662;2022-07-05T05:57:55;2.38;;;1.70;;
11646;SDS011;5880;52.342;9.662;2022-07-05T06:00:22;2.30;;;1.60;;
11646;SDS011;5880;52.342;9.662;2022-07-05T06:02:50;2.97;;;1.75;;
11646;SDS011;5880;52.342;9.662;2022-07-05T06:05:16;2.63;;;1.63;;
11646;SDS011;5880;52.342;9.662;2022-07-05T06:07:43;2.70;;;1.50;;
11646;SDS011;5880;52.342;9.662;2022-07-05T06:12:49;2.25;;;1.45;;
11646;SDS011;5880;52.342;9.662;2022-07-05T06:15:17;1.92;;;1.70;;
11646;SDS011;5880;52.342;9.662;2022-07-05T06:17:44;2.10;;;1.70;;
11646;SDS011;5880;52.342;9.662;2022-07-05T06:20:12;4.13;;;1.70;;
11646;SDS011;5880;52.342;9.662;2022-07-05T06:22:43;2.72;;;1.45;;
11646;SDS011;5880;52.342;9.662;2022-07-05T06:25:10;4.25;;;1.70;;
11646;SDS011;5880;52.342;9.662;2022-07-05T06:27:42;1.88;;;1.45;;
11646;SDS011;5880;52.342;9.662;2022-07-05T06:30:13;3.28;;;1.63;;
11646;SDS011;5880;52.342;9.662;2022-07-05T06:32:42;3.33;;;1.60;;
11646;SDS011;5880;52.342;9.662;2022-07-05T06:35:10;2.25;;;1.35;;
11646;SDS011;5880;52.342;9.662;2022-07-05T06:37:51;2.08;;;1.55;;
11646;SDS011;5880;52.342;9.662;2022-07-05T06:40:29;3.13;;;1.30;;
11646;SDS011;5880;52.342;9.662;2022-07-05T06:43:01;1.52;;;1.40;;
11646;SDS011;5880;52.342;9.662;2022-07-05T06:45:29;1.42;;;1.23;;
11646;SDS011;5880;52.342;9.662;2022-07-05T06:48:00;0.90;;;0.90;;
11646;SDS011;5880;52.342;9.662;2022-07-05T06:50:32;1.23;;;1.10;;
11646;SDS011;5880;52.342;9.662;2022-07-05T06:53:00;1.13;;;1.02;;
11646;SDS011;5880;52.342;9.662;2022-07-05T06:55:27;1.70;;;1.30;;
11646;SDS011;5880;52.342;9.662;2022-07-05T06:58:11;1.10;;;1.00;;
11646;SDS011;5880;52.342;9.662;2022-07-05T07:00:37;2.78;;;1.40;;
11646;SDS011;5880;52.342;9.662;2022-07-05T07:03:07;1.42;;;1.23;;
11646;SDS011;5880;52.342;9.662;2022-07-05T07:05:32;1.52;;;1.00;;
11646;SDS011;5880;52.342;9.662;2022-07-05T07:07:58;0.98;;;0.98;;
11646;SDS011;5880;52.342;9.662;2022-07-05T07:10:42;1.40;;;1.05;;
11646;SDS011;5880;52.342;9.662;2022-07-05T07:13:08;2.00;;;1.17;;
11646;SDS011;5880;52.342;9.662;2022-07-05T07:15:34;2.05;;;1.17;;
11646;SDS011;5880;52.342;9.662;2022-07-05T07:18:00;1.05;;;0.95;;
11646;SDS011;5880;52.342;9.662;2022-07-05T07:20:26;2.13;;;1.20;;
11646;SDS011;5880;52.342;9.662;2022-07-05T07:22:52;1.42;;;1.33;;
11646;SDS011;5880;52.342;9.662;2022-07-05T07:25:18;1.15;;;1.00;;
11646;SDS011;5880;52.342;9.662;2022-07-05T07:27:51;1.27;;;1.17;;
11646;SDS011;5880;52.342;9.662;2022-07-05T07:30:22;1.55;;;1.20;;
11646;SDS011;5880;52.342;9.662;2022-07-05T07:32:51;2.33;;;1.50;;
11646;SDS011;5880;52.342;9.662;2022-07-05T07:35:17;1.90;;;1.17;;
11646;SDS011;5880;52.342;9.662;2022-07-05T07:37:42;2.25;;;1.15;;
11646;SDS011;5880;52.342;9.662;2022-07-05T07:40:08;1.83;;;1.00;;
11646;SDS011;5880;52.342;9.662;2022-07-05T07:42:35;1.33;;;1.00;;
11646;SDS011;5880;52.342;9.662;2022-07-05T07:45:01;1.58;;;0.95;;
11646;SDS011;5880;52.342;9.662;2022-07-05T07:47:28;4.32;;;1.13;;
11646;SDS011;5880;52.342;9.662;2022-07-05T07:49:58;1.08;;;1.00;;
11646;SDS011;5880;52.342;9.662;2022-07-05T07:52:24;1.20;;;1.10;;
11646;SDS011;5880;52.342;9.662;2022-07-05T07:54:50;1.30;;;1.00;;
11646;SDS011;5880;52.342;9.662;2022-07-05T07:57:16;1.20;;;1.10;;
11646;SDS011;5880;52.342;9.662;2022-07-05T07:59:43;3.58;;;1.15;;
11646;SDS011;5880;52.342;9.662;2022-07-05T08:02:09;1.20;;;1.10;;
11646;SDS011;5880;52.342;9.662;2022-07-05T08:04:35;1.25;;;1.10;;
11646;SDS011;5880;52.342;9.662;2022-07-05T08:07:01;1.00;;;1.00;;
11646;SDS011;5880;52.342;9.662;2022-07-05T08:09:28;1.80;;;1.00;;
11646;SDS011;5880;52.342;9.662;2022-07-05T08:11:55;1.02;;;1.02;;
11646;SDS011;5880;52.342;9.662;2022-07-05T08:14:21;1.40;;;1.08;;
11646;SDS011;5880;52.342;9.662;2022-07-05T08:16:48;1.10;;;1.00;;
11646;SDS011;5880;52.342;9.662;2022-07-05T08:19:15;0.90;;;0.90;;
11646;SDS011;5880;52.342;9.662;2022-07-05T08:22:00;1.33;;;1.23;;
11646;SDS011;5880;52.342;9.662;2022-07-05T08:24:26;1.20;;;1.00;;
11646;SDS011;5880;52.342;9.662;2022-07-05T08:26:52;0.88;;;0.80;;
11646;SDS011;5880;52.342;9.662;2022-07-05T08:29:18;1.77;;;1.00;;
11646;SDS011;5880;52.342;9.662;2022-07-05T08:31:45;1.35;;;1.10;;
11646;SDS011;5880;52.342;9.662;2022-07-05T08:34:14;0.80;;;0.80;;
11646;SDS011;5880;52.342;9.662;2022-07-05T08:36:42;2.83;;;1.10;;
11646;SDS011;5880;52.342;9.662;2022-07-05T08:39:08;1.10;;;1.00;;
11646;SDS011;5880;52.342;9.662;2022-07-05T08:41:36;1.00;;;0.90;;
11646;SDS011;5880;52.342;9.662;2022-07-05T08:44:06;1.00;;;0.90;;
11646;SDS011;5880;52.342;9.662;2022-07-05T08:46:33;2.05;;;1.00;;
11646;SDS011;5880;52.342;9.662;2022-07-05T08:49:03;0.70;;;0.70;;
11646;SDS011;5880;52.342;9.662;2022-07-05T08:51:32;1.17;;;0.82;;
11646;SDS011;5880;52.342;9.662;2022-07-05T08:54:03;1.70;;;0.88;;
11646;SDS011;5880;52.342;9.662;2022-07-05T08:56:30;0.98;;;0.90;;
11646;SDS011;5880;52.342;9.662;2022-07-05T08:58:56;0.93;;;0.85;;
11646;SDS011;5880;52.342;9.662;2022-07-05T09:01:22;1.15;;;0.90;;
11646;SDS011;5880;52.342;9.662;2022-07-05T09:03:50;1.00;;;0.90;;
11646;SDS011;5880;52.342;9.662;2022-07-05T09:06:18;0.88;;;0.88;;
11646;SDS011;5880;52.342;9.662;2022-07-05T09:08:50;1.10;;;0.73;;
11646;SDS011;5880;52.342;9.662;2022-07-05T09:11:22;0.82;;;0.82;;
11646;SDS011;5880;52.342;9.662;2022-07-05T09:13:53;1.00;;;0.90;;
11646;SDS011;5880;52.342;9.662;2022-07-05T09:16:19;0.75;;;0.75;;
11646;SDS011;5880;52.342;9.662;2022-07-05T09:23:56;1.45;;;1.00;;
11646;SDS011;5880;52.342;9.662;2022-07-05T09:26:33;1.67;;;1.10;;
11646;SDS011;5880;52.342;9.662;2022-07-05T09:29:09;1.30;;;1.00;;
11646;SDS011;5880;52.342;9.662;2022-07-05T09:31:42;1.00;;;0.90;;
11646;SDS011;5880;52.342;9.662;2022-07-05T09:34:11;0.75;;;0.75;;
11646;SDS011;5880;52.342;9.662;2022-07-05T09:39:42;0.80;;;0.80;;
11646;SDS011;5880;52.342;9.662;2022-07-05T09:44:37;1.10;;;1.00;;
11646;SDS011;5880;52.342;9.662;2022-07-05T09:47:12;0.90;;;0.90;;
11646;SDS011;5880;52.342;9.662;2022-07-05T09:49:42;1.52;;;0.80;;
11646;SDS011;5880;52.342;9.662;2022-07-05T09:52:29;0.75;;;0.75;;
11646;SDS011;5880;52.342;9.662;2022-07-05T09:55:00;1.35;;;0.90;;
11646;SDS011;5880;52.342;9.662;2022-07-05T09:57:30;0.90;;;0.90;;
11646;SDS011;5880;52.342;9.662;2022-07-05T10:00:03;0.95;;;0.95;;
11646;SDS011;5880;52.342;9.662;2022-07-05T10:02:38;0.88;;;0.88;;
11646;SDS011;5880;52.342;9.662;2022-07-05T10:07:42;1.92;;;1.10;;
11646;SDS011;5880;52.342;9.662;2022-07-05T10:10:11;0.90;;;0.90;;
11646;SDS011;5880;52.342;9.662;2022-07-05T10:12:39;1.55;;;0.90;;
11646;SDS011;5880;52.342;9.662;2022-07-05T10:15:08;2.28;;;0.93;;
11646;SDS011;5880;52.342;9.662;2022-07-05T10:17:39;1.00;;;0.90;;
11646;SDS011;5880;52.342;9.662;2022-07-05T10:20:11;1.10;;;0.98;;
11646;SDS011;5880;52.342;9.662;2022-07-05T10:22:52;0.75;;;0.75;;
11646;SDS011;5880;52.342;9.662;2022-07-05T10:25:20;0.77;;;0.77;;
11646;SDS011;5880;52.342;9.662;2022-07-05T10:27:48;1.95;;;0.85;;
11646;SDS011;5880;52.342;9.662;2022-07-05T10:30:19;0.80;;;0.80;;
11646;SDS011;5880;52.342;9.662;2022-07-05T10:32:49;0.77;;;0.77;;
11646;SDS011;5880;52.342;9.662;2022-07-05T10:35:16;0.70;;;0.70;;
11646;SDS011;5880;52.342;9.662;2022-07-05T10:37:43;0.90;;;0.90;;
11646;SDS011;5880;52.342;9.662;2022-07-05T10:40:11;0.70;;;0.70;;
11646;SDS011;5880;52.342;9.662;2022-07-05T10:45:26;0.80;;;0.80;;
11646;SDS011;5880;52.342;9.662;2022-07-05T10:50:53;0.82;;;0.82;;
11646;SDS011;5880;52.342;9.662;2022-07-05T10:53:24;0.80;;;0.70;;
11646;SDS011;5880;52.342;9.662;2022-07-05T10:56:10;1.05;;;0.80;;
11646;SDS011;5880;52.342;9.662;2022-07-05T10:58:37;0.70;;;0.70;;
11646;SDS011;5880;52.342;9.662;2022-07-05T11:06:26;1.10;;;0.80;;
11646;SDS011;5880;52.342;9.662;2022-07-05T11:11:36;0.57;;;0.57;;
11646;SDS011;5880;52.342;9.662;2022-07-05T11:19:58;0.63;;;0.63;;
11646;SDS011;5880;52.342;9.662;2022-07-05T11:22:40;0.57;;;0.57;;
11646;SDS011;5880;52.342;9.662;2022-07-05T11:25:27;0.80;;;0.65;;
11646;SDS011;5880;52.342;9.662;2022-07-05T11:27:59;0.85;;;0.65;;
11646;SDS011;5880;52.342;9.662;2022-07-05T11:30:48;1.65;;;0.70;;
11646;SDS011;5880;52.342;9.662;2022-07-05T11:33:25;0.55;;;0.55;;
11646;SDS011;5880;52.342;9.662;2022-07-05T11:35:53;0.93;;;0.70;;
11646;SDS011;5880;52.342;9.662;2022-07-05T11:38:20;1.70;;;0.80;;
11646;SDS011;5880;52.342;9.662;2022-07-05T11:40:47;0.82;;;0.60;;
11646;SDS011;5880;52.342;9.662;2022-07-05T11:43:12;1.48;;;0.65;;
11646;SDS011;5880;52.342;9.662;2022-07-05T11:45:38;0.43;;;0.43;;
11646;SDS011;5880;52.342;9.662;2022-07-05T11:48:04;0.73;;;0.50;;
11646;SDS011;5880;52.342;9.662;2022-07-05T11:50:31;0.88;;;0.65;;
11646;SDS011;5880;52.342;9.662;2022-07-05T11:52:59;0.68;;;0.68;;
11646;SDS011;5880;52.342;9.662;2022-07-05T11:55:26;0.50;;;0.50;;
11646;SDS011;5880;52.342;9.662;2022-07-05T11:57:54;1.45;;;0.70;;
11646;SDS011;5880;52.342;9.662;2022-07-05T12:00:29;0.60;;;0.60;;
11646;SDS011;5880;52.342;9.662;2022-07-05T12:03:01;0.50;;;0.50;;
11646;SDS011;5880;52.342;9.662;2022-07-05T12:05:36;1.13;;;0.50;;
11646;SDS011;5880;52.342;9.662;2022-07-05T12:08:01;0.65;;;0.60;;
11646;SDS011;5880;52.342;9.662;2022-07-05T12:10:27;0.95;;;0.82;;
11646;SDS011;5880;52.342;9.662;2022-07-05T12:13:11;0.70;;;0.70;;
11646;SDS011;5880;52.342;9.662;2022-07-05T12:15:38;0.73;;;0.47;;
11646;SDS011;5880;52.342;9.662;2022-07-05T12:18:05;1.15;;;0.60;;
11646;SDS011;5880;52.342;9.662;2022-07-05T12:20:34;0.95;;;0.60;;
11646;SDS011;5880;52.342;9.662;2022-07-05T12:23:04;0.60;;;0.60;;
11646;SDS011;5880;52.342;9.662;2022-07-05T12:25:31;0.65;;;0.60;;
11646;SDS011;5880;52.342;9.662;2022-07-05T12:27:59;0.68;;;0.68;;
11646;SDS011;5880;52.342;9.662;2022-07-05T12:30:27;0.55;;;0.50;;
11646;SDS011;5880;52.342;9.662;2022-07-05T12:32:55;0.60;;;0.50;;
11646;SDS011;5880;52.342;9.662;2022-07-05T12:35:41;0.68;;;0.60;;
11646;SDS011;5880;52.342;9.662;2022-07-05T12:38:09;0.60;;;0.60;;
11646;SDS011;5880;52.342;9.662;2022-07-05T12:40:48;0.65;;;0.65;;
11646;SDS011;5880;52.342;9.662;2022-07-05T12:43:22;2.25;;;0.70;;
11646;SDS011;5880;52.342;9.662;2022-07-05T12:46:07;0.57;;;0.57;;
11646;SDS011;5880;52.342;9.662;2022-07-05T12:48:36;1.08;;;0.70;;
11646;SDS011;5880;52.342;9.662;2022-07-05T12:51:04;1.50;;;0.80;;
11646;SDS011;5880;52.342;9.662;2022-07-05T12:53:31;0.65;;;0.65;;
11646;SDS011;5880;52.342;9.662;2022-07-05T12:56:19;1.13;;;0.40;;
11646;SDS011;5880;52.342;9.662;2022-07-05T12:59:08;0.52;;;0.52;;
11646;SDS011;5880;52.342;9.662;2022-07-05T13:01:39;1.17;;;0.60;;
11646;SDS011;5880;52.342;9.662;2022-07-05T13:04:16;0.80;;;0.60;;
11646;SDS011;5880;52.342;9.662;2022-07-05T13:06:45;1.50;;;0.60;;
11646;SDS011;5880;52.342;9.662;2022-07-05T13:14:57;0.65;;;0.65;;
11646;SDS011;5880;52.342;9.662;2022-07-05T13:17:23;0.68;;;0.68;;
11646;SDS011;5880;52.342;9.662;2022-07-05T13:19:50;0.95;;;0.70;;
11646;SDS011;5880;52.342;9.662;2022-07-05T13:22:17;0.50;;;0.50;;
11646;SDS011;5880;52.342;9.662;2022-07-05T13:24:43;0.88;;;0.70;;
11646;SDS011;5880;52.342;9.662;2022-07-05T13:27:10;0.65;;;0.65;;
11646;SDS011;5880;52.342;9.662;2022-07-05T13:29:37;0.65;;;0.65;;
11646;SDS011;5880;52.342;9.662;2022-07-05T13:32:04;0.70;;;0.60;;
11646;SDS011;5880;52.342;9.662;2022-07-05T13:34:31;0.70;;;0.70;;
11646;SDS011;5880;52.342;9.662;2022-07-05T13:36:57;0.77;;;0.60;;
11646;SDS011;5880;52.342;9.662;2022-07-05T13:39:26;1.52;;;0.70;;
11646;SDS011;5880;52.342;9.662;2022-07-05T13:41:52;0.57;;;0.57;;
11646;SDS011;5880;52.342;9.662;2022-07-05T13:44:20;1.20;;;0.68;;
11646;SDS011;5880;52.342;9.662;2022-07-05T13:46:47;0.90;;;0.70;;
11646;SDS011;5880;52.342;9.662;2022-07-05T13:49:13;2.90;;;0.80;;
11646;SDS011;5880;52.342;9.662;2022-07-05T13:51:39;5.15;;;0.98;;
11646;SDS011;5880;52.342;9.662;2022-07-05T13:54:06;1.27;;;0.80;;
11646;SDS011;5880;52.342;9.662;2022-07-05T13:56:32;1.73;;;0.80;;
11646;SDS011;5880;52.342;9.662;2022-07-05T13:58:58;0.70;;;0.70;;
11646;SDS011;5880;52.342;9.662;2022-07-05T14:01:24;1.90;;;0.90;;
11646;SDS011;5880;52.342;9.662;2022-07-05T14:03:59;0.60;;;0.60;;
11646;SDS011;5880;52.342;9.662;2022-07-05T14:06:27;1.08;;;0.75;;
11646;SDS011;5880;52.342;9.662;2022-07-05T14:08:55;0.90;;;0.80;;
11646;SDS011;5880;52.342;9.662;2022-07-05T14:11:21;0.70;;;0.70;;
11646;SDS011;5880;52.342;9.662;2022-07-05T14:13:47;0.80;;;0.60;;
11646;SDS011;5880;52.342;9.662;2022-07-05T14:16:13;1.05;;;0.70;;
11646;SDS011;5880;52.342;9.662;2022-07-05T14:18:38;2.22;;;0.70;;
11646;SDS011;5880;52.342;9.662;2022-07-05T14:21:04;0.68;;;0.68;;
11646;SDS011;5880;52.342;9.662;2022-07-05T14:23:30;0.88;;;0.70;;
11646;SDS011;5880;52.342;9.662;2022-07-05T14:25:59;1.20;;;0.70;;
11646;SDS011;5880;52.342;9.662;2022-07-05T14:28:26;0.70;;;0.70;;
11646;SDS011;5880;52.342;9.662;2022-07-05T14:30:52;13.82;;;1.02;;
11646;SDS011;5880;52.342;9.662;2022-07-05T14:33:17;0.60;;;0.60;;
11646;SDS011;5880;52.342;9.662;2022-07-05T14:35:43;1.10;;;0.80;;
11646;SDS011;5880;52.342;9.662;2022-07-05T14:38:09;0.50;;;0.50;;
11646;SDS011;5880;52.342;9.662;2022-07-05T14:40:35;1.52;;;0.60;;
11646;SDS011;5880;52.342;9.662;2022-07-05T14:43:01;0.70;;;0.70;;
11646;SDS011;5880;52.342;9.662;2022-07-05T14:45:27;0.65;;;0.65;;
11646;SDS011;5880;52.342;9.662;2022-07-05T14:47:54;1.88;;;0.63;;
11646;SDS011;5880;52.342;9.662;2022-07-05T14:50:20;0.93;;;0.50;;
11646;SDS011;5880;52.342;9.662;2022-07-05T14:52:47;0.75;;;0.65;;
11646;SDS011;5880;52.342;9.662;2022-07-05T14:55:14;1.25;;;0.80;;
11646;SDS011;5880;52.342;9.662;2022-07-05T14:57:40;0.50;;;0.50;;
11646;SDS011;5880;52.342;9.662;2022-07-05T15:00:07;1.10;;;0.55;;
11646;SDS011;5880;52.342;9.662;2022-07-05T15:02:38;0.95;;;0.80;;
11646;SDS011;5880;52.342;9.662;2022-07-05T15:05:05;0.70;;;0.57;;
11646;SDS011;5880;52.342;9.662;2022-07-05T15:07:32;0.70;;;0.70;;
11646;SDS011;5880;52.342;9.662;2022-07-05T15:09:58;1.00;;;0.60;;
11646;SDS011;5880;52.342;9.662;2022-07-05T15:12:24;0.70;;;0.70;;
11646;SDS011;5880;52.342;9.662;2022-07-05T15:14:50;0.60;;;0.60;;
11646;SDS011;5880;52.342;9.662;2022-07-05T15:17:16;0.60;;;0.60;;
11646;SDS011;5880;52.342;9.662;2022-07-05T15:19:41;0.77;;;0.68;;
11646;SDS011;5880;52.342;9.662;2022-07-05T15:22:07;1.45;;;0.60;;
11646;SDS011;5880;52.342;9.662;2022-07-05T15:24:35;1.02;;;0.90;;
11646;SDS011;5880;52.342;9.662;2022-07-05T15:27:01;0.95;;;0.63;;
11646;SDS011;5880;52.342;9.662;2022-07-05T15:29:27;0.60;;;0.60;;
11646;SDS011;5880;52.342;9.662;2022-07-05T15:31:54;0.70;;;0.70;;
11646;SDS011;5880;52.342;9.662;2022-07-05T15:34:21;1.67;;;0.80;;
11646;SDS011;5880;52.342;9.662;2022-07-05T15:36:48;0.60;;;0.60;;
11646;SDS011;5880;52.342;9.662;2022-07-05T15:39:14;0.70;;;0.68;;
11646;SDS011;5880;52.342;9.662;2022-07-05T15:41:40;1.33;;;0.65;;
11646;SDS011;5880;52.342;9.662;2022-07-05T15:44:06;0.80;;;0.80;;
11646;SDS011;5880;52.342;9.662;2022-07-05T15:46:32;2.42;;;0.70;;
11646;SDS011;5880;52.342;9.662;2022-07-05T15:49:16;0.60;;;0.60;;